Jamie Marie — WDE7178 — position and weather

sailwx.info

Track history (hours):
 
Tides and Currents Weather Stations Pressure Air Temp Water Temp Dewpoint Dewpoint Depression Visibility Wind Speed Wind Dir Waves Ship Positions

Jamie Marie

Owner: Jamie Marie, Inc., Aberdeen, WA. More information available from US FCC via Universal Licensing System and Coast Guard Vessel Documentation Center.

Last reported at 2017-Aug-18 08:30 UTC. Time now 2017-Aug-18 08:56 UTC.
Position N 46°48' W 124°34'.

Length 30 m.

Type: Fishing. MMSI: 366425240.

Date/timePositionNaut miles runAvg speedWind from/ knotsBaromVisibWave heightAir tempDewpointWater temp
2017-Aug-18 08:30N 46°48' W 124°34'4 8.1
2017-Aug-18 08:00N 46°50' W 124°28'4 8.0
2017-Aug-18 07:30N 46°52' W 124°23'4 8.2
2017-Aug-18 07:00N 46°53' W 124°17'4 8.3
2017-Aug-18 06:30N 46°55' W 124°12'4 7.5
2017-Aug-18 06:01N 46°54' W 124°06'0 0.2
2017-Aug-18 05:30N 46°54' W 124°06'0 0.0
2017-Aug-18 05:00N 46°54' W 124°06'0 0.0
2017-Aug-18 04:30N 46°54' W 124°06'0 0.0
2017-Aug-18 03:57N 46°54' W 124°06'0 0.0
2017-Aug-18 03:29N 46°54' W 124°06'0 0.0
2017-Aug-18 03:00N 46°54' W 124°06'0 0.0
2017-Aug-18 02:30N 46°54' W 124°06'0 0.0
2017-Aug-18 02:00N 46°54' W 124°06'0 0.0
2017-Aug-18 01:30N 46°54' W 124°06'0 0.0
2017-Aug-18 01:00N 46°54' W 124°06'0 0.0
2017-Aug-18 00:30N 46°54' W 124°06'0 0.0
2017-Aug-18 00:00N 46°54' W 124°06'0 0.0
2017-Aug-17 23:30N 46°54' W 124°06'0 0.0
2017-Aug-17 23:00N 46°54' W 124°06'0 0.0
2017-Aug-17 22:30N 46°54' W 124°06'0 0.0
2017-Aug-17 22:00N 46°54' W 124°06'0 0.0
2017-Aug-17 21:30N 46°54' W 124°06'0 0.1
2017-Aug-17 21:00N 46°54' W 124°06'0 0.0
2017-Aug-17 20:30N 46°54' W 124°06'0 0.0
2017-Aug-17 20:01N 46°54' W 124°06'0 0.1
2017-Aug-17 19:30N 46°54' W 124°06'0 0.0
2017-Aug-17 19:00N 46°54' W 124°06'0 0.0
2017-Aug-17 18:30N 46°54' W 124°06'0 0.0
2017-Aug-17 18:00N 46°54' W 124°06'0 0.0
2017-Aug-17 17:30N 46°54' W 124°06'0 0.0
2017-Aug-17 17:00N 46°54' W 124°06'0 0.0
2017-Aug-17 16:30N 46°54' W 124°06'0 0.0
2017-Aug-17 16:00N 46°54' W 124°06'0 0.0
2017-Aug-17 15:30N 46°54' W 124°06'0 0.0
2017-Aug-17 15:00N 46°54' W 124°06'0 0.0
2017-Aug-17 14:30N 46°54' W 124°06'0 0.1
2017-Aug-17 14:00N 46°54' W 124°06'0 0.0
2017-Aug-17 13:30N 46°54' W 124°06'0 0.0
2017-Aug-17 13:00N 46°54' W 124°06'0 0.0
2017-Aug-17 12:30N 46°54' W 124°06'0 0.0
2017-Aug-17 12:00N 46°54' W 124°06'0 0.0
2017-Aug-17 11:30N 46°54' W 124°06'0 0.0
2017-Aug-17 11:00N 46°54' W 124°06'0 0.0
2017-Aug-17 10:30N 46°54' W 124°06'0 0.0
2017-Aug-17 10:00N 46°54' W 124°06'0 0.0
2017-Aug-17 09:30N 46°54' W 124°06'0 0.0
2017-Aug-17 09:00N 46°54' W 124°06'0 0.0
2017-Aug-17 08:30N 46°54' W 124°06'0 0.0
2017-Aug-17 08:00N 46°54' W 124°06'0 0.0
2017-Aug-17 07:30N 46°54' W 124°06'0 0.0
2017-Aug-17 06:41N 46°54' W 124°06'0 0.0
2017-Aug-17 06:30N 46°54' W 124°06'0 0.0
2017-Aug-17 06:00N 46°54' W 124°06'0 0.0
2017-Aug-17 05:30N 46°54' W 124°06'0 0.0
2017-Aug-17 05:00N 46°54' W 124°06'0 0.0
2017-Aug-17 04:30N 46°54' W 124°06'0 0.0
2017-Aug-17 04:00N 46°54' W 124°06'3 6.0
2017-Aug-17 03:30N 46°55' W 124°11'5 8.8
2017-Aug-17 03:00N 46°58' W 124°15'5 9.3
2017-Aug-17 02:30N 47°02' W 124°18'5 9.1
2017-Aug-17 02:00N 47°06' W 124°21'4 8.9
2017-Aug-17 01:30N 47°10' W 124°24'77 8.7
2017-Aug-16 16:40N 48°19' W 125°15'0 2.0
2017-Aug-16 16:28N 48°20' W 125°15'1 1.5
2017-Aug-16 15:50N 48°19' W 125°15'3 0.4
2017-Aug-16 07:42N 48°18' W 125°10'0 0.5
2017-Aug-16 07:21N 48°18' W 125°11'0 0.6
2017-Aug-16 06:59N 48°18' W 125°11'8 3.8
2017-Aug-16 04:58N 48°19' W 124°60'3 6.3
2017-Aug-16 04:27N 48°21' W 124°55'3 6.2
2017-Aug-16 04:00N 48°23' W 124°53'4 6.3
2017-Aug-16 03:25N 48°25' W 124°58'3 6.3
2017-Aug-16 02:59N 48°23' W 125°02'5 7.8
2017-Aug-16 02:24N 48°23' W 125°09'2 6.1
2017-Aug-16 02:00N 48°22' W 125°13'3 5.0
2017-Aug-16 01:23N 48°19' W 125°14'5 6.7
2017-Aug-16 00:41N 48°15' W 125°13'2 7.3
2017-Aug-16 00:27N 48°13' W 125°14'3 5.8
2017-Aug-15 23:53N 48°10' W 125°11'6 6.3
2017-Aug-15 22:59N 48°07' W 125°18'3 6.7
2017-Aug-15 22:30N 48°04' W 125°20'1 2.3
2017-Aug-15 22:00N 48°05' W 125°19'7 1.7
2017-Aug-15 17:55N 47°58' W 125°19'2 2.9
2017-Aug-15 17:19N 47°57' W 125°17'1 2.9
2017-Aug-15 17:00N 47°56' W 125°16'1 2.9
2017-Aug-15 16:30N 47°55' W 125°15'2 1.3
2017-Aug-15 15:07N 47°54' W 125°13'2 4.1
2017-Aug-15 14:39N 47°52' W 125°12'9 8.4
2017-Aug-15 13:36N 47°44' W 125°06'1 8.5
2017-Aug-15 13:30N 47°43' W 125°05'6 8.1
2017-Aug-15 12:45N 47°38' W 125°01'3 8.1
2017-Aug-15 12:20N 47°36' W 124°58'3 8.1
2017-Aug-15 12:00N 47°33' W 124°55'4 8.4
2017-Aug-15 11:30N 47°30' W 124°51'4 8.4
2017-Aug-15 11:00N 47°27' W 124°48'4 8.4
2017-Aug-15 10:30N 47°23' W 124°44'4 8.2
2017-Aug-15 10:00N 47°20' W 124°40'4 8.4
2017-Aug-15 09:30N 47°17' W 124°36'4 8.8
2017-Aug-15 09:00N 47°13' W 124°32'6 9.0
2017-Aug-15 08:17N 47°08' W 124°27'2 8.9
2017-Aug-15 08:00N 47°06' W 124°24'4 8.6
2017-Aug-15 07:30N 47°03' W 124°21'4 8.5
2017-Aug-15 07:00N 46°59' W 124°17'4 8.5
2017-Aug-15 06:30N 46°56' W 124°13'5 9.5
2017-Aug-15 06:00N 46°55' W 124°07'0 0.9
2017-Aug-15 05:30N 46°54' W 124°06'0 0.1
2017-Aug-15 04:59N 46°54' W 124°06'0 0.0
2017-Aug-15 04:30N 46°54' W 124°06'0 0.0
2017-Aug-15 04:00N 46°54' W 124°06'0 0.0
2017-Aug-15 03:30N 46°54' W 124°06'0 0.0
2017-Aug-15 03:00N 46°54' W 124°06'0 0.0
2017-Aug-15 02:30N 46°54' W 124°06'0 0.0
2017-Aug-15 01:56N 46°54' W 124°06'0 0.0
2017-Aug-15 01:18N 46°54' W 124°06'0 0.0
2017-Aug-15 01:00N 46°54' W 124°06'0 0.0
2017-Aug-15 00:30N 46°54' W 124°06'0 0.0
2017-Aug-15 00:00N 46°54' W 124°06'0 0.0
2017-Aug-14 23:30N 46°54' W 124°06'0 0.0
2017-Aug-14 23:00N 46°54' W 124°06'0 0.0
2017-Aug-14 22:30N 46°54' W 124°06'0 0.0
2017-Aug-14 22:00N 46°54' W 124°06'0 0.0
2017-Aug-14 21:30N 46°54' W 124°06'0 0.0
2017-Aug-14 21:00N 46°54' W 124°06'0 0.0
2017-Aug-14 20:08N 46°54' W 124°06'0 0.0
2017-Aug-14 20:00N 46°54' W 124°06'0 0.0
2017-Aug-14 19:30N 46°54' W 124°06'0 0.0
2017-Aug-14 19:00N 46°54' W 124°06'0 0.0
2017-Aug-14 18:30N 46°54' W 124°06'0 0.0
2017-Aug-14 18:00N 46°54' W 124°06'0 0.0
2017-Aug-14 17:30N 46°54' W 124°06'0 0.0
2017-Aug-14 17:00N 46°54' W 124°06'0 0.0
2017-Aug-14 16:30N 46°54' W 124°06'0 0.0
2017-Aug-14 16:00N 46°54' W 124°06'0 0.0
2017-Aug-14 15:30N 46°54' W 124°06'0 0.0
2017-Aug-14 15:00N 46°54' W 124°06'0 0.0
2017-Aug-14 14:30N 46°54' W 124°06'0 0.0
2017-Aug-14 14:00N 46°54' W 124°06'0 0.0
2017-Aug-14 13:30N 46°54' W 124°06'0 0.0
2017-Aug-14 13:00N 46°54' W 124°06'0 0.0
2017-Aug-14 12:30N 46°54' W 124°06'0 0.0
2017-Aug-14 12:00N 46°54' W 124°06'0 0.0
2017-Aug-14 11:30N 46°54' W 124°06'0 0.0
2017-Aug-14 11:00N 46°54' W 124°06'0 0.0
2017-Aug-14 10:30N 46°54' W 124°06'0 0.0
2017-Aug-14 10:00N 46°54' W 124°06'0 0.0
2017-Aug-14 09:30N 46°54' W 124°06'0 0.0
2017-Aug-14 09:00N 46°54' W 124°06'0 0.0
2017-Aug-14 08:30N 46°54' W 124°06'0 0.0
2017-Aug-14 08:00N 46°54' W 124°06'0 0.0
2017-Aug-14 07:30N 46°54' W 124°06'0 0.0
2017-Aug-14 07:00N 46°54' W 124°06'0 0.0
2017-Aug-14 06:30N 46°54' W 124°06'0 0.0
2017-Aug-14 06:00N 46°54' W 124°06'0 0.0
2017-Aug-14 05:27N 46°54' W 124°06'0 0.0
2017-Aug-14 05:00N 46°54' W 124°06'0 0.0
2017-Aug-14 04:30N 46°54' W 124°06'0 0.0
2017-Aug-14 04:00N 46°54' W 124°06'0 0.0
2017-Aug-14 03:30N 46°54' W 124°06'0 0.0
2017-Aug-14 02:59N 46°54' W 124°06'0 0.0
2017-Aug-14 02:26N 46°54' W 124°06'0 0.0
2017-Aug-14 02:00N 46°54' W 124°06'0 0.0
2017-Aug-14 01:30N 46°54' W 124°06'0 0.0
2017-Aug-14 01:00N 46°54' W 124°06'0 0.0
2017-Aug-14 00:30N 46°54' W 124°06'0 0.0
2017-Aug-14 00:00N 46°54' W 124°06'0 0.0
2017-Aug-13 23:30N 46°54' W 124°06'0 0.0
2017-Aug-13 23:00N 46°54' W 124°06'0 0.0
2017-Aug-13 22:30N 46°54' W 124°06'0 0.0
2017-Aug-13 22:00N 46°54' W 124°06'0 0.0
2017-Aug-13 21:30N 46°54' W 124°06'0 0.0
2017-Aug-13 21:00N 46°54' W 124°06'0 0.0
2017-Aug-13 20:30N 46°54' W 124°06'0 0.0
2017-Aug-13 20:00N 46°54' W 124°06'0 0.0
2017-Aug-13 19:30N 46°54' W 124°06'0 0.0
2017-Aug-13 19:00N 46°54' W 124°06'0 0.0
2017-Aug-13 18:30N 46°54' W 124°06'0 0.5
2017-Aug-13 18:00N 46°55' W 124°06'0 0.4
2017-Aug-13 17:30N 46°54' W 124°06'0 0.1
2017-Aug-13 17:00N 46°54' W 124°06'0 0.0
2017-Aug-13 16:30N 46°54' W 124°06'0 0.0
2017-Aug-13 16:00N 46°54' W 124°06'0 0.0
2017-Aug-13 15:30N 46°54' W 124°06'0 0.0
2017-Aug-13 15:00N 46°54' W 124°06'0 0.0
2017-Aug-13 14:30N 46°54' W 124°06'0 0.0
2017-Aug-13 14:00N 46°54' W 124°06'0 0.0
2017-Aug-13 13:30N 46°54' W 124°06'0 0.0
2017-Aug-13 13:00N 46°54' W 124°06'0 0.0
2017-Aug-13 12:30N 46°54' W 124°06'0 0.0
2017-Aug-13 12:00N 46°54' W 124°06'0 0.0
2017-Aug-13 11:30N 46°54' W 124°06'0 0.0
2017-Aug-13 11:00N 46°54' W 124°06'0 0.0
2017-Aug-13 10:19N 46°54' W 124°06'0 0.0
2017-Aug-13 10:00N 46°54' W 124°06'0 0.1
2017-Aug-13 09:30N 46°54' W 124°06'0 0.0
2017-Aug-13 09:00N 46°54' W 124°06'0 0.0
2017-Aug-13 08:30N 46°54' W 124°06'0 0.0
2017-Aug-13 07:21N 46°54' W 124°06'0 0.0
2017-Aug-13 07:00N 46°54' W 124°06'0 0.0
2017-Aug-13 06:30N 46°54' W 124°06'0 0.0
2017-Aug-13 06:00N 46°54' W 124°06'0 0.0
2017-Aug-13 05:29N 46°54' W 124°06'0 0.0
2017-Aug-13 04:56N 46°54' W 124°06'0 0.0
2017-Aug-13 04:30N 46°54' W 124°06'0 0.0
2017-Aug-13 04:00N 46°54' W 124°06'0 0.0
2017-Aug-13 03:30N 46°54' W 124°06'0 0.0
2017-Aug-13 03:00N 46°54' W 124°06'0 0.1
2017-Aug-13 02:30N 46°54' W 124°06'0 0.0
2017-Aug-13 02:00N 46°54' W 124°06'0 0.0
2017-Aug-13 01:30N 46°54' W 124°06'0 0.0
2017-Aug-13 01:00N 46°54' W 124°06'0 0.0
2017-Aug-13 00:30N 46°54' W 124°06'0 0.0
2017-Aug-13 00:00N 46°54' W 124°06'0 0.0
2017-Aug-12 23:30N 46°54' W 124°06'0 0.0
2017-Aug-12 23:00N 46°54' W 124°06'0 0.0
2017-Aug-12 22:30N 46°54' W 124°06'0 0.0
2017-Aug-12 22:00N 46°54' W 124°06'0 0.0
2017-Aug-12 21:30N 46°54' W 124°06'0 0.0
2017-Aug-12 21:00N 46°54' W 124°06'0 0.0
2017-Aug-12 20:30N 46°54' W 124°06'0 0.0
2017-Aug-12 20:00N 46°54' W 124°06'0 0.0
2017-Aug-12 19:30N 46°54' W 124°06'0 0.0
2017-Aug-12 19:00N 46°54' W 124°06'0 0.0
2017-Aug-12 18:24N 46°54' W 124°06'0 0.0
2017-Aug-12 17:48N 46°54' W 124°06'0 0.0
2017-Aug-12 17:30N 46°54' W 124°06'0 0.0
2017-Aug-12 17:00N 46°54' W 124°06'0 0.0
2017-Aug-12 16:30N 46°54' W 124°06'0 0.0
2017-Aug-12 16:00N 46°54' W 124°06'0 0.0
2017-Aug-12 15:30N 46°54' W 124°06'0 0.0
2017-Aug-12 15:00N 46°54' W 124°06'0 0.0
2017-Aug-12 14:30N 46°54' W 124°06'0 0.0
2017-Aug-12 14:00N 46°54' W 124°06'0 0.0
2017-Aug-12 13:30N 46°54' W 124°06'0 0.0
2017-Aug-12 13:00N 46°54' W 124°06'0 0.0
2017-Aug-12 12:30N 46°54' W 124°06'0 0.0
2017-Aug-12 11:55N 46°54' W 124°06'0 0.0
2017-Aug-12 11:30N 46°54' W 124°06'0 0.0
2017-Aug-12 11:00N 46°54' W 124°06'0 0.0
2017-Aug-12 10:30N 46°54' W 124°06'0 0.0
2017-Aug-12 10:00N 46°54' W 124°06'0 0.0
2017-Aug-12 09:30N 46°54' W 124°06'0 0.0
2017-Aug-12 09:00N 46°54' W 124°06'3 6.0
2017-Aug-12 08:30N 46°55' W 124°11'4 7.6
2017-Aug-12 08:00N 46°57' W 124°16'8 8.3
2017-Aug-12 07:06N 47°03' W 124°23'1 8.4
2017-Aug-12 07:00N 47°03' W 124°23'4 8.1
2017-Aug-12 06:28N 47°07' W 124°27'5 7.9
2017-Aug-12 05:51N 47°11' W 124°31'3 7.9
2017-Aug-12 05:30N 47°13' W 124°33'6 8.5
2017-Aug-12 04:49N 47°18' W 124°39'3 8.6
2017-Aug-12 04:24N 47°21' W 124°42'4 8.8
2017-Aug-12 03:59N 47°24' W 124°45'4 8.2
2017-Aug-12 03:29N 47°27' W 124°48'4 8.3
2017-Aug-12 03:00N 47°30' W 124°52'5 8.3
2017-Aug-12 02:24N 47°34' W 124°56'3 8.3
2017-Aug-12 02:00N 47°37' W 124°59'5 8.1
2017-Aug-12 01:22N 47°41' W 125°03'3 8.2
2017-Aug-12 01:00N 47°44' W 125°06'4 8.1
2017-Aug-12 00:30N 47°47' W 125°10'4 7.9
2017-Aug-11 23:59N 47°50' W 125°13'3 7.2
2017-Aug-11 23:30N 47°53' W 125°16'4 7.3
2017-Aug-11 22:59N 47°56' W 125°20'2 4.6
2017-Aug-11 22:27N 47°58' W 125°22'1 2.2
2017-Aug-11 22:00N 47°59' W 125°22'2 2.4
2017-Aug-11 21:16N 48°01' W 125°22'1 2.9
2017-Aug-11 21:00N 48°02' W 125°22'2 3.2
2017-Aug-11 20:30N 48°03' W 125°21'1 2.5
2017-Aug-11 20:00N 48°02' W 125°21'1 1.7
2017-Aug-11 19:28N 48°01' W 125°20'1 1.3
2017-Aug-11 18:51N 48°01' W 125°20'0 1.3
2017-Aug-11 18:29N 48°00' W 125°21'1 1.9
2017-Aug-11 17:58N 47°60' W 125°20'1 3.1
2017-Aug-11 17:29N 47°58' W 125°19'1 3.0
2017-Aug-11 16:59N 47°57' W 125°17'1 3.0
2017-Aug-11 16:30N 47°56' W 125°16'1 3.0
2017-Aug-11 16:00N 47°55' W 125°14'2 3.0
2017-Aug-11 15:28N 47°54' W 125°13'1 2.9
2017-Aug-11 15:00N 47°53' W 125°12'3 3.2
2017-Aug-11 14:00N 47°50' W 125°09'3 5.2
2017-Aug-11 13:26N 47°48' W 125°06'4 8.5
2017-Aug-11 13:00N 47°44' W 125°04'4 8.6
2017-Aug-11 12:30N 47°41' W 125°01'4 8.5
2017-Aug-11 12:00N 47°37' W 124°57'4 8.4
2017-Aug-11 11:30N 47°34' W 124°54'4 8.4
2017-Aug-11 11:00N 47°30' W 124°50'4 8.4
2017-Aug-11 10:30N 47°27' W 124°47'4 8.5
2017-Aug-11 10:00N 47°24' W 124°43'4 8.6
2017-Aug-11 09:29N 47°20' W 124°39'4 8.8
2017-Aug-11 09:00N 47°17' W 124°36'5 8.9
2017-Aug-11 08:30N 47°13' W 124°31'5 9.3
2017-Aug-11 08:00N 47°09' W 124°28'5 9.1
2017-Aug-11 07:30N 47°06' W 124°24'5 8.7
2017-Aug-11 06:58N 47°02' W 124°20'11 7.6
2017-Aug-11 05:30N 46°55' W 124°07'1 1.2
2017-Aug-11 05:00N 46°54' W 124°06'0 0.0
2017-Aug-11 04:30N 46°54' W 124°06'0 0.0
2017-Aug-11 04:00N 46°54' W 124°06'0 0.0
2017-Aug-11 03:30N 46°54' W 124°06'0 0.0
2017-Aug-11 03:00N 46°54' W 124°06'0 0.0
2017-Aug-11 02:29N 46°54' W 124°06'0 0.0
2017-Aug-11 02:00N 46°54' W 124°06'0 0.0
2017-Aug-11 01:28N 46°54' W 124°06'0 0.0
2017-Aug-11 00:56N 46°54' W 124°06'0 0.0
2017-Aug-11 00:30N 46°54' W 124°06'0 0.1
2017-Aug-11 00:00N 46°54' W 124°06'0 0.0
2017-Aug-10 23:30N 46°54' W 124°06'0 0.0
2017-Aug-10 23:00N 46°54' W 124°06'0 0.0
2017-Aug-10 22:30N 46°54' W 124°06'0 0.0
2017-Aug-10 22:00N 46°54' W 124°06'0 0.0
2017-Aug-10 21:30N 46°54' W 124°06'0 0.0
2017-Aug-10 21:00N 46°54' W 124°06'0 0.0
2017-Aug-10 20:20N 46°54' W 124°06'0 0.0
2017-Aug-10 20:00N 46°54' W 124°06'0 0.0
2017-Aug-10 19:30N 46°54' W 124°06'0 0.0
2017-Aug-10 19:00N 46°54' W 124°06'0 0.0
2017-Aug-10 18:15N 46°54' W 124°06'0 0.0
2017-Aug-10 18:00N 46°54' W 124°06'0 0.0
2017-Aug-10 17:30N 46°54' W 124°06'0 0.0
2017-Aug-10 17:00N 46°54' W 124°06'0 0.0
2017-Aug-10 16:30N 46°54' W 124°06'0 0.0
2017-Aug-10 16:00N 46°54' W 124°06'0 0.0
2017-Aug-10 15:30N 46°54' W 124°06'0 0.0
2017-Aug-10 15:00N 46°54' W 124°06'0 0.0
2017-Aug-10 14:30N 46°54' W 124°06'0 0.0
2017-Aug-10 13:56N 46°54' W 124°06'0 0.0
2017-Aug-10 13:30N 46°54' W 124°06'0 0.0
2017-Aug-10 13:00N 46°54' W 124°06'0 0.0
2017-Aug-10 12:29N 46°54' W 124°06'0 0.1
2017-Aug-10 12:00N 46°54' W 124°06'0 0.0
2017-Aug-10 11:30N 46°54' W 124°06'0 0.0
2017-Aug-10 11:00N 46°54' W 124°06'0 0.0
2017-Aug-10 10:30N 46°54' W 124°06'1 1.2
2017-Aug-10 10:00N 46°55' W 124°07'4 8.3
2017-Aug-10 09:30N 46°55' W 124°13'4 8.0
2017-Aug-10 09:00N 46°58' W 124°16'5 8.0
2017-Aug-10 08:26N 47°02' W 124°20'3 7.9
2017-Aug-10 08:00N 47°05' W 124°23'4 7.8
2017-Aug-10 07:30N 47°08' W 124°27'4 7.7
2017-Aug-10 07:00N 47°11' W 124°30'4 7.7
2017-Aug-10 06:30N 47°15' W 124°33'1410.4
2017-Aug-10 05:08N 47°26' W 124°45'0 0.7
2017-Aug-10 04:46N 47°26' W 124°45'2 8.4
2017-Aug-10 04:29N 47°28' W 124°47'4 8.1
2017-Aug-10 04:01N 47°32' W 124°51'4 8.1
2017-Aug-10 03:30N 47°35' W 124°54'4 8.0
2017-Aug-10 03:00N 47°38' W 124°58'4 7.9
2017-Aug-10 02:30N 47°41' W 125°01'4 8.1
2017-Aug-10 02:00N 47°44' W 125°05'5 7.1
2017-Aug-10 01:15N 47°49' W 125°08'2 8.1
2017-Aug-10 01:00N 47°51' W 125°10'4 8.1
2017-Aug-10 00:30N 47°54' W 125°14'4 8.0
2017-Aug-10 00:00N 47°57' W 125°18'4 6.9
2017-Aug-09 23:24N 48°01' W 125°19'2 5.6
2017-Aug-09 23:00N 48°03' W 125°18'4 2.2
2017-Aug-09 21:09N 48°07' W 125°15'0 3.0
2017-Aug-09 21:00N 48°07' W 125°15'2 2.7
2017-Aug-09 20:08N 48°09' W 125°13'6 2.9
2017-Aug-09 18:10N 48°15' W 125°13'1 7.4
2017-Aug-09 17:58N 48°13' W 125°13'5 7.3
2017-Aug-09 17:18N 48°09' W 125°16'5 1.4
2017-Aug-09 13:50N 48°13' W 125°12'1 2.3
2017-Aug-09 13:26N 48°14' W 125°11'1 1.5
2017-Aug-09 12:56N 48°14' W 125°12'4 3.4
2017-Aug-09 11:45N 48°15' W 125°06'0 1.0
2017-Aug-09 11:30N 48°15' W 125°07'1 1.0
2017-Aug-09 10:58N 48°15' W 125°08'1 1.2
2017-Aug-09 10:24N 48°15' W 125°09'2 1.3
2017-Aug-09 08:34N 48°14' W 125°12'0 1.1
2017-Aug-09 08:24N 48°14' W 125°12'2 1.0
2017-Aug-09 06:25N 48°12' W 125°14'6 4.7
2017-Aug-09 05:03N 48°08' W 125°06'0 4.7
2017-Aug-09 05:00N 48°08' W 125°06'3 4.7
2017-Aug-09 04:27N 48°07' W 125°02'0 0.5
2017-Aug-09 03:57N 48°07' W 125°02'1 1.8
2017-Aug-09 03:26N 48°08' W 125°02'2 2.9
2017-Aug-09 02:45N 48°10' W 125°02'1 3.5
2017-Aug-09 02:30N 48°11' W 125°02'1 1.5
2017-Aug-09 02:01N 48°10' W 125°02'2 4.0
2017-Aug-09 01:29N 48°12' W 125°05'3 4.6
2017-Aug-09 00:52N 48°10' W 125°06'3 6.8
2017-Aug-09 00:27N 48°12' W 125°06'4 9.0
2017-Aug-08 23:59N 48°14' W 125°12'28 8.5
2017-Aug-08 20:42N 47°47' W 125°04'2 7.9
2017-Aug-08 20:29N 47°45' W 125°04'5 9.2
2017-Aug-08 19:59N 47°41' W 125°03'4 8.9
2017-Aug-08 19:30N 47°37' W 125°00'4 8.8
2017-Aug-08 19:00N 47°33' W 124°57'4 8.6
2017-Aug-08 18:30N 47°29' W 124°54'5 8.7
2017-Aug-08 17:55N 47°25' W 124°50'4 8.7
2017-Aug-08 17:30N 47°22' W 124°48'0 0.2
2017-Aug-08 17:00N 47°22' W 124°47'5 8.1
2017-Aug-08 16:25N 47°17' W 124°45'3 8.3
2017-Aug-08 16:00N 47°15' W 124°42'4 8.6
2017-Aug-08 15:29N 47°11' W 124°37'11 9.1
2017-Aug-08 14:19N 47°04' W 124°26'3 8.8
2017-Aug-08 14:00N 47°02' W 124°23'4 8.9
2017-Aug-08 13:30N 46°59' W 124°19'4 8.9
2017-Aug-08 13:00N 46°56' W 124°14'510.4
2017-Aug-08 12:30N 46°55' W 124°07'0 0.8
2017-Aug-08 12:00N 46°54' W 124°06'0 0.1
2017-Aug-08 11:30N 46°54' W 124°06'0 0.0
2017-Aug-08 11:00N 46°54' W 124°06'0 0.0
2017-Aug-08 10:30N 46°54' W 124°06'0 0.0
2017-Aug-08 10:00N 46°54' W 124°06'0 0.0
2017-Aug-08 09:30N 46°54' W 124°06'0 0.0
2017-Aug-08 09:00N 46°54' W 124°06'  
Track history (hours):
 
Tides and Currents Weather Stations Pressure Air Temp Water Temp Dewpoint Dewpoint Depression Visibility Wind Speed Wind Dir Waves Ship Positions

Jamie Marie

Owner: Jamie Marie, Inc., Aberdeen, WA. More information available from US FCC via Universal Licensing System and Coast Guard Vessel Documentation Center.

Last reported at 2017-Aug-18 08:30 UTC. Time now 2017-Aug-18 08:56 UTC.
Position N 46°48' W 124°34'.

Length 30 m.

Type: Fishing. MMSI: 366425240.

Date/timePositionNaut miles runAvg speedWind from/ knotsBaromVisibWave heightAir tempDewpointWater temp
2017-Aug-18 08:30N 46°48' W 124°34'4 8.1
2017-Aug-18 08:00N 46°50' W 124°28'4 8.0
2017-Aug-18 07:30N 46°52' W 124°23'4 8.2
2017-Aug-18 07:00N 46°53' W 124°17'4 8.3
2017-Aug-18 06:30N 46°55' W 124°12'4 7.5
2017-Aug-18 06:01N 46°54' W 124°06'0 0.2
2017-Aug-18 05:30N 46°54' W 124°06'0 0.0
2017-Aug-18 05:00N 46°54' W 124°06'0 0.0
2017-Aug-18 04:30N 46°54' W 124°06'0 0.0
2017-Aug-18 03:57N 46°54' W 124°06'0 0.0
2017-Aug-18 03:29N 46°54' W 124°06'0 0.0
2017-Aug-18 03:00N 46°54' W 124°06'0 0.0
2017-Aug-18 02:30N 46°54' W 124°06'0 0.0
2017-Aug-18 02:00N 46°54' W 124°06'0 0.0
2017-Aug-18 01:30N 46°54' W 124°06'0 0.0
2017-Aug-18 01:00N 46°54' W 124°06'0 0.0
2017-Aug-18 00:30N 46°54' W 124°06'0 0.0
2017-Aug-18 00:00N 46°54' W 124°06'0 0.0
2017-Aug-17 23:30N 46°54' W 124°06'0 0.0
2017-Aug-17 23:00N 46°54' W 124°06'0 0.0
2017-Aug-17 22:30N 46°54' W 124°06'0 0.0
2017-Aug-17 22:00N 46°54' W 124°06'0 0.0
2017-Aug-17 21:30N 46°54' W 124°06'0 0.1
2017-Aug-17 21:00N 46°54' W 124°06'0 0.0
2017-Aug-17 20:30N 46°54' W 124°06'0 0.0
2017-Aug-17 20:01N 46°54' W 124°06'0 0.1
2017-Aug-17 19:30N 46°54' W 124°06'0 0.0
2017-Aug-17 19:00N 46°54' W 124°06'0 0.0
2017-Aug-17 18:30N 46°54' W 124°06'0 0.0
2017-Aug-17 18:00N 46°54' W 124°06'0 0.0
2017-Aug-17 17:30N 46°54' W 124°06'0 0.0
2017-Aug-17 17:00N 46°54' W 124°06'0 0.0
2017-Aug-17 16:30N 46°54' W 124°06'0 0.0
2017-Aug-17 16:00N 46°54' W 124°06'0 0.0
2017-Aug-17 15:30N 46°54' W 124°06'0 0.0
2017-Aug-17 15:00N 46°54' W 124°06'0 0.0
2017-Aug-17 14:30N 46°54' W 124°06'0 0.1
2017-Aug-17 14:00N 46°54' W 124°06'0 0.0
2017-Aug-17 13:30N 46°54' W 124°06'0 0.0
2017-Aug-17 13:00N 46°54' W 124°06'0 0.0
2017-Aug-17 12:30N 46°54' W 124°06'0 0.0
2017-Aug-17 12:00N 46°54' W 124°06'0 0.0
2017-Aug-17 11:30N 46°54' W 124°06'0 0.0
2017-Aug-17 11:00N 46°54' W 124°06'0 0.0
2017-Aug-17 10:30N 46°54' W 124°06'0 0.0
2017-Aug-17 10:00N 46°54' W 124°06'0 0.0
2017-Aug-17 09:30N 46°54' W 124°06'0 0.0
2017-Aug-17 09:00N 46°54' W 124°06'0 0.0
2017-Aug-17 08:30N 46°54' W 124°06'0 0.0
2017-Aug-17 08:00N 46°54' W 124°06'0 0.0
2017-Aug-17 07:30N 46°54' W 124°06'0 0.0
2017-Aug-17 06:41N 46°54' W 124°06'0 0.0
2017-Aug-17 06:30N 46°54' W 124°06'0 0.0
2017-Aug-17 06:00N 46°54' W 124°06'0 0.0
2017-Aug-17 05:30N 46°54' W 124°06'0 0.0
2017-Aug-17 05:00N 46°54' W 124°06'0 0.0
2017-Aug-17 04:30N 46°54' W 124°06'0 0.0
2017-Aug-17 04:00N 46°54' W 124°06'3 6.0
2017-Aug-17 03:30N 46°55' W 124°11'5 8.8
2017-Aug-17 03:00N 46°58' W 124°15'5 9.3
2017-Aug-17 02:30N 47°02' W 124°18'5 9.1
2017-Aug-17 02:00N 47°06' W 124°21'4 8.9
2017-Aug-17 01:30N 47°10' W 124°24'77 8.7
2017-Aug-16 16:40N 48°19' W 125°15'0 2.0
2017-Aug-16 16:28N 48°20' W 125°15'1 1.5
2017-Aug-16 15:50N 48°19' W 125°15'3 0.4
2017-Aug-16 07:42N 48°18' W 125°10'0 0.5
2017-Aug-16 07:21N 48°18' W 125°11'0 0.6
2017-Aug-16 06:59N 48°18' W 125°11'8 3.8
2017-Aug-16 04:58N 48°19' W 124°60'3 6.3
2017-Aug-16 04:27N 48°21' W 124°55'3 6.2
2017-Aug-16 04:00N 48°23' W 124°53'4 6.3
2017-Aug-16 03:25N 48°25' W 124°58'3 6.3
2017-Aug-16 02:59N 48°23' W 125°02'5 7.8
2017-Aug-16 02:24N 48°23' W 125°09'2 6.1
2017-Aug-16 02:00N 48°22' W 125°13'3 5.0
2017-Aug-16 01:23N 48°19' W 125°14'5 6.7
2017-Aug-16 00:41N 48°15' W 125°13'2 7.3
2017-Aug-16 00:27N 48°13' W 125°14'3 5.8
2017-Aug-15 23:53N 48°10' W 125°11'6 6.3
2017-Aug-15 22:59N 48°07' W 125°18'3 6.7
2017-Aug-15 22:30N 48°04' W 125°20'1 2.3
2017-Aug-15 22:00N 48°05' W 125°19'7 1.7
2017-Aug-15 17:55N 47°58' W 125°19'2 2.9
2017-Aug-15 17:19N 47°57' W 125°17'1 2.9
2017-Aug-15 17:00N 47°56' W 125°16'1 2.9
2017-Aug-15 16:30N 47°55' W 125°15'2 1.3
2017-Aug-15 15:07N 47°54' W 125°13'2 4.1
2017-Aug-15 14:39N 47°52' W 125°12'9 8.4
2017-Aug-15 13:36N 47°44' W 125°06'1 8.5
2017-Aug-15 13:30N 47°43' W 125°05'6 8.1
2017-Aug-15 12:45N 47°38' W 125°01'3 8.1
2017-Aug-15 12:20N 47°36' W 124°58'3 8.1
2017-Aug-15 12:00N 47°33' W 124°55'4 8.4
2017-Aug-15 11:30N 47°30' W 124°51'4 8.4
2017-Aug-15 11:00N 47°27' W 124°48'4 8.4
2017-Aug-15 10:30N 47°23' W 124°44'4 8.2
2017-Aug-15 10:00N 47°20' W 124°40'4 8.4
2017-Aug-15 09:30N 47°17' W 124°36'4 8.8
2017-Aug-15 09:00N 47°13' W 124°32'6 9.0
2017-Aug-15 08:17N 47°08' W 124°27'2 8.9
2017-Aug-15 08:00N 47°06' W 124°24'4 8.6
2017-Aug-15 07:30N 47°03' W 124°21'4 8.5
2017-Aug-15 07:00N 46°59' W 124°17'4 8.5
2017-Aug-15 06:30N 46°56' W 124°13'5 9.5
2017-Aug-15 06:00N 46°55' W 124°07'0 0.9
2017-Aug-15 05:30N 46°54' W 124°06'0 0.1
2017-Aug-15 04:59N 46°54' W 124°06'0 0.0
2017-Aug-15 04:30N 46°54' W 124°06'0 0.0
2017-Aug-15 04:00N 46°54' W 124°06'0 0.0
2017-Aug-15 03:30N 46°54' W 124°06'0 0.0
2017-Aug-15 03:00N 46°54' W 124°06'0 0.0
2017-Aug-15 02:30N 46°54' W 124°06'0 0.0
2017-Aug-15 01:56N 46°54' W 124°06'0 0.0
2017-Aug-15 01:18N 46°54' W 124°06'0 0.0
2017-Aug-15 01:00N 46°54' W 124°06'0 0.0
2017-Aug-15 00:30N 46°54' W 124°06'0 0.0
2017-Aug-15 00:00N 46°54' W 124°06'0 0.0
2017-Aug-14 23:30N 46°54' W 124°06'0 0.0
2017-Aug-14 23:00N 46°54' W 124°06'0 0.0
2017-Aug-14 22:30N 46°54' W 124°06'0 0.0
2017-Aug-14 22:00N 46°54' W 124°06'0 0.0
2017-Aug-14 21:30N 46°54' W 124°06'0 0.0
2017-Aug-14 21:00N 46°54' W 124°06'0 0.0
2017-Aug-14 20:08N 46°54' W 124°06'0 0.0
2017-Aug-14 20:00N 46°54' W 124°06'0 0.0
2017-Aug-14 19:30N 46°54' W 124°06'0 0.0
2017-Aug-14 19:00N 46°54' W 124°06'0 0.0
2017-Aug-14 18:30N 46°54' W 124°06'0 0.0
2017-Aug-14 18:00N 46°54' W 124°06'0 0.0
2017-Aug-14 17:30N 46°54' W 124°06'0 0.0
2017-Aug-14 17:00N 46°54' W 124°06'0 0.0
2017-Aug-14 16:30N 46°54' W 124°06'0 0.0
2017-Aug-14 16:00N 46°54' W 124°06'0 0.0
2017-Aug-14 15:30N 46°54' W 124°06'0 0.0
2017-Aug-14 15:00N 46°54' W 124°06'0 0.0
2017-Aug-14 14:30N 46°54' W 124°06'0 0.0
2017-Aug-14 14:00N 46°54' W 124°06'0 0.0
2017-Aug-14 13:30N 46°54' W 124°06'0 0.0
2017-Aug-14 13:00N 46°54' W 124°06'0 0.0
2017-Aug-14 12:30N 46°54' W 124°06'0 0.0
2017-Aug-14 12:00N 46°54' W 124°06'0 0.0
2017-Aug-14 11:30N 46°54' W 124°06'0 0.0
2017-Aug-14 11:00N 46°54' W 124°06'0 0.0
2017-Aug-14 10:30N 46°54' W 124°06'0 0.0
2017-Aug-14 10:00N 46°54' W 124°06'0 0.0
2017-Aug-14 09:30N 46°54' W 124°06'0 0.0
2017-Aug-14 09:00N 46°54' W 124°06'0 0.0
2017-Aug-14 08:30N 46°54' W 124°06'0 0.0
2017-Aug-14 08:00N 46°54' W 124°06'0 0.0
2017-Aug-14 07:30N 46°54' W 124°06'0 0.0
2017-Aug-14 07:00N 46°54' W 124°06'0 0.0
2017-Aug-14 06:30N 46°54' W 124°06'0 0.0
2017-Aug-14 06:00N 46°54' W 124°06'0 0.0
2017-Aug-14 05:27N 46°54' W 124°06'0 0.0
2017-Aug-14 05:00N 46°54' W 124°06'0 0.0
2017-Aug-14 04:30N 46°54' W 124°06'0 0.0
2017-Aug-14 04:00N 46°54' W 124°06'0 0.0
2017-Aug-14 03:30N 46°54' W 124°06'0 0.0
2017-Aug-14 02:59N 46°54' W 124°06'0 0.0
2017-Aug-14 02:26N 46°54' W 124°06'0 0.0
2017-Aug-14 02:00N 46°54' W 124°06'0 0.0
2017-Aug-14 01:30N 46°54' W 124°06'0 0.0
2017-Aug-14 01:00N 46°54' W 124°06'0 0.0
2017-Aug-14 00:30N 46°54' W 124°06'0 0.0
2017-Aug-14 00:00N 46°54' W 124°06'0 0.0
2017-Aug-13 23:30N 46°54' W 124°06'0 0.0
2017-Aug-13 23:00N 46°54' W 124°06'0 0.0
2017-Aug-13 22:30N 46°54' W 124°06'0 0.0
2017-Aug-13 22:00N 46°54' W 124°06'0 0.0
2017-Aug-13 21:30N 46°54' W 124°06'0 0.0
2017-Aug-13 21:00N 46°54' W 124°06'0 0.0
2017-Aug-13 20:30N 46°54' W 124°06'0 0.0
2017-Aug-13 20:00N 46°54' W 124°06'0 0.0
2017-Aug-13 19:30N 46°54' W 124°06'0 0.0
2017-Aug-13 19:00N 46°54' W 124°06'0 0.0
2017-Aug-13 18:30N 46°54' W 124°06'0 0.5
2017-Aug-13 18:00N 46°55' W 124°06'0 0.4
2017-Aug-13 17:30N 46°54' W 124°06'0 0.1
2017-Aug-13 17:00N 46°54' W 124°06'0 0.0
2017-Aug-13 16:30N 46°54' W 124°06'0 0.0
2017-Aug-13 16:00N 46°54' W 124°06'0 0.0
2017-Aug-13 15:30N 46°54' W 124°06'0 0.0
2017-Aug-13 15:00N 46°54' W 124°06'0 0.0
2017-Aug-13 14:30N 46°54' W 124°06'0 0.0
2017-Aug-13 14:00N 46°54' W 124°06'0 0.0
2017-Aug-13 13:30N 46°54' W 124°06'0 0.0
2017-Aug-13 13:00N 46°54' W 124°06'0 0.0
2017-Aug-13 12:30N 46°54' W 124°06'0 0.0
2017-Aug-13 12:00N 46°54' W 124°06'0 0.0
2017-Aug-13 11:30N 46°54' W 124°06'0 0.0
2017-Aug-13 11:00N 46°54' W 124°06'0 0.0
2017-Aug-13 10:19N 46°54' W 124°06'0 0.0
2017-Aug-13 10:00N 46°54' W 124°06'0 0.1
2017-Aug-13 09:30N 46°54' W 124°06'0 0.0
2017-Aug-13 09:00N 46°54' W 124°06'0 0.0
2017-Aug-13 08:30N 46°54' W 124°06'0 0.0
2017-Aug-13 07:21N 46°54' W 124°06'0 0.0
2017-Aug-13 07:00N 46°54' W 124°06'0 0.0
2017-Aug-13 06:30N 46°54' W 124°06'0 0.0
2017-Aug-13 06:00N 46°54' W 124°06'0 0.0
2017-Aug-13 05:29N 46°54' W 124°06'0 0.0
2017-Aug-13 04:56N 46°54' W 124°06'0 0.0
2017-Aug-13 04:30N 46°54' W 124°06'0 0.0
2017-Aug-13 04:00N 46°54' W 124°06'0 0.0
2017-Aug-13 03:30N 46°54' W 124°06'0 0.0
2017-Aug-13 03:00N 46°54' W 124°06'0 0.1
2017-Aug-13 02:30N 46°54' W 124°06'0 0.0
2017-Aug-13 02:00N 46°54' W 124°06'0 0.0
2017-Aug-13 01:30N 46°54' W 124°06'0 0.0
2017-Aug-13 01:00N 46°54' W 124°06'0 0.0
2017-Aug-13 00:30N 46°54' W 124°06'0 0.0
2017-Aug-13 00:00N 46°54' W 124°06'0 0.0
2017-Aug-12 23:30N 46°54' W 124°06'0 0.0
2017-Aug-12 23:00N 46°54' W 124°06'0 0.0
2017-Aug-12 22:30N 46°54' W 124°06'0 0.0
2017-Aug-12 22:00N 46°54' W 124°06'0 0.0
2017-Aug-12 21:30N 46°54' W 124°06'0 0.0
2017-Aug-12 21:00N 46°54' W 124°06'0 0.0
2017-Aug-12 20:30N 46°54' W 124°06'0 0.0
2017-Aug-12 20:00N 46°54' W 124°06'0 0.0
2017-Aug-12 19:30N 46°54' W 124°06'0 0.0
2017-Aug-12 19:00N 46°54' W 124°06'0 0.0
2017-Aug-12 18:24N 46°54' W 124°06'0 0.0
2017-Aug-12 17:48N 46°54' W 124°06'0 0.0
2017-Aug-12 17:30N 46°54' W 124°06'0 0.0
2017-Aug-12 17:00N 46°54' W 124°06'0 0.0
2017-Aug-12 16:30N 46°54' W 124°06'0 0.0
2017-Aug-12 16:00N 46°54' W 124°06'0 0.0
2017-Aug-12 15:30N 46°54' W 124°06'0 0.0
2017-Aug-12 15:00N 46°54' W 124°06'0 0.0
2017-Aug-12 14:30N 46°54' W 124°06'0 0.0
2017-Aug-12 14:00N 46°54' W 124°06'0 0.0
2017-Aug-12 13:30N 46°54' W 124°06'0 0.0
2017-Aug-12 13:00N 46°54' W 124°06'0 0.0
2017-Aug-12 12:30N 46°54' W 124°06'0 0.0
2017-Aug-12 11:55N 46°54' W 124°06'0 0.0
2017-Aug-12 11:30N 46°54' W 124°06'0 0.0
2017-Aug-12 11:00N 46°54' W 124°06'0 0.0
2017-Aug-12 10:30N 46°54' W 124°06'0 0.0
2017-Aug-12 10:00N 46°54' W 124°06'0 0.0
2017-Aug-12 09:30N 46°54' W 124°06'0 0.0
2017-Aug-12 09:00N 46°54' W 124°06'3 6.0
2017-Aug-12 08:30N 46°55' W 124°11'4 7.6
2017-Aug-12 08:00N 46°57' W 124°16'8 8.3
2017-Aug-12 07:06N 47°03' W 124°23'1 8.4
2017-Aug-12 07:00N 47°03' W 124°23'4 8.1
2017-Aug-12 06:28N 47°07' W 124°27'5 7.9
2017-Aug-12 05:51N 47°11' W 124°31'3 7.9
2017-Aug-12 05:30N 47°13' W 124°33'6 8.5
2017-Aug-12 04:49N 47°18' W 124°39'3 8.6
2017-Aug-12 04:24N 47°21' W 124°42'4 8.8
2017-Aug-12 03:59N 47°24' W 124°45'4 8.2
2017-Aug-12 03:29N 47°27' W 124°48'4 8.3
2017-Aug-12 03:00N 47°30' W 124°52'5 8.3
2017-Aug-12 02:24N 47°34' W 124°56'3 8.3
2017-Aug-12 02:00N 47°37' W 124°59'5 8.1
2017-Aug-12 01:22N 47°41' W 125°03'3 8.2
2017-Aug-12 01:00N 47°44' W 125°06'4 8.1
2017-Aug-12 00:30N 47°47' W 125°10'4 7.9
2017-Aug-11 23:59N 47°50' W 125°13'3 7.2
2017-Aug-11 23:30N 47°53' W 125°16'4 7.3
2017-Aug-11 22:59N 47°56' W 125°20'2 4.6
2017-Aug-11 22:27N 47°58' W 125°22'1 2.2
2017-Aug-11 22:00N 47°59' W 125°22'2 2.4
2017-Aug-11 21:16N 48°01' W 125°22'1 2.9
2017-Aug-11 21:00N 48°02' W 125°22'2 3.2
2017-Aug-11 20:30N 48°03' W 125°21'1 2.5
2017-Aug-11 20:00N 48°02' W 125°21'1 1.7
2017-Aug-11 19:28N 48°01' W 125°20'1 1.3
2017-Aug-11 18:51N 48°01' W 125°20'0 1.3
2017-Aug-11 18:29N 48°00' W 125°21'1 1.9
2017-Aug-11 17:58N 47°60' W 125°20'1 3.1
2017-Aug-11 17:29N 47°58' W 125°19'1 3.0
2017-Aug-11 16:59N 47°57' W 125°17'1 3.0
2017-Aug-11 16:30N 47°56' W 125°16'1 3.0
2017-Aug-11 16:00N 47°55' W 125°14'2 3.0
2017-Aug-11 15:28N 47°54' W 125°13'1 2.9
2017-Aug-11 15:00N 47°53' W 125°12'3 3.2
2017-Aug-11 14:00N 47°50' W 125°09'3 5.2
2017-Aug-11 13:26N 47°48' W 125°06'4 8.5
2017-Aug-11 13:00N 47°44' W 125°04'4 8.6
2017-Aug-11 12:30N 47°41' W 125°01'4 8.5
2017-Aug-11 12:00N 47°37' W 124°57'4 8.4
2017-Aug-11 11:30N 47°34' W 124°54'4 8.4
2017-Aug-11 11:00N 47°30' W 124°50'4 8.4
2017-Aug-11 10:30N 47°27' W 124°47'4 8.5
2017-Aug-11 10:00N 47°24' W 124°43'4 8.6
2017-Aug-11 09:29N 47°20' W 124°39'4 8.8
2017-Aug-11 09:00N 47°17' W 124°36'5 8.9
2017-Aug-11 08:30N 47°13' W 124°31'5 9.3
2017-Aug-11 08:00N 47°09' W 124°28'5 9.1
2017-Aug-11 07:30N 47°06' W 124°24'5 8.7
2017-Aug-11 06:58N 47°02' W 124°20'11 7.6
2017-Aug-11 05:30N 46°55' W 124°07'1 1.2
2017-Aug-11 05:00N 46°54' W 124°06'0 0.0
2017-Aug-11 04:30N 46°54' W 124°06'0 0.0
2017-Aug-11 04:00N 46°54' W 124°06'0 0.0
2017-Aug-11 03:30N 46°54' W 124°06'0 0.0
2017-Aug-11 03:00N 46°54' W 124°06'0 0.0
2017-Aug-11 02:29N 46°54' W 124°06'0 0.0
2017-Aug-11 02:00N 46°54' W 124°06'0 0.0
2017-Aug-11 01:28N 46°54' W 124°06'0 0.0
2017-Aug-11 00:56N 46°54' W 124°06'0 0.0
2017-Aug-11 00:30N 46°54' W 124°06'0 0.1
2017-Aug-11 00:00N 46°54' W 124°06'0 0.0
2017-Aug-10 23:30N 46°54' W 124°06'0 0.0
2017-Aug-10 23:00N 46°54' W 124°06'0 0.0
2017-Aug-10 22:30N 46°54' W 124°06'0 0.0
2017-Aug-10 22:00N 46°54' W 124°06'0 0.0
2017-Aug-10 21:30N 46°54' W 124°06'0 0.0
2017-Aug-10 21:00N 46°54' W 124°06'0 0.0
2017-Aug-10 20:20N 46°54' W 124°06'0 0.0
2017-Aug-10 20:00N 46°54' W 124°06'0 0.0
2017-Aug-10 19:30N 46°54' W 124°06'0 0.0
2017-Aug-10 19:00N 46°54' W 124°06'0 0.0
2017-Aug-10 18:15N 46°54' W 124°06'0 0.0
2017-Aug-10 18:00N 46°54' W 124°06'0 0.0
2017-Aug-10 17:30N 46°54' W 124°06'0 0.0
2017-Aug-10 17:00N 46°54' W 124°06'0 0.0
2017-Aug-10 16:30N 46°54' W 124°06'0 0.0
2017-Aug-10 16:00N 46°54' W 124°06'0 0.0
2017-Aug-10 15:30N 46°54' W 124°06'0 0.0
2017-Aug-10 15:00N 46°54' W 124°06'0 0.0
2017-Aug-10 14:30N 46°54' W 124°06'0 0.0
2017-Aug-10 13:56N 46°54' W 124°06'0 0.0
2017-Aug-10 13:30N 46°54' W 124°06'0 0.0
2017-Aug-10 13:00N 46°54' W 124°06'0 0.0
2017-Aug-10 12:29N 46°54' W 124°06'0 0.1
2017-Aug-10 12:00N 46°54' W 124°06'0 0.0
2017-Aug-10 11:30N 46°54' W 124°06'0 0.0
2017-Aug-10 11:00N 46°54' W 124°06'0 0.0
2017-Aug-10 10:30N 46°54' W 124°06'1 1.2
2017-Aug-10 10:00N 46°55' W 124°07'4 8.3
2017-Aug-10 09:30N 46°55' W 124°13'4 8.0
2017-Aug-10 09:00N 46°58' W 124°16'5 8.0
2017-Aug-10 08:26N 47°02' W 124°20'3 7.9
2017-Aug-10 08:00N 47°05' W 124°23'4 7.8
2017-Aug-10 07:30N 47°08' W 124°27'4 7.7
2017-Aug-10 07:00N 47°11' W 124°30'4 7.7
2017-Aug-10 06:30N 47°15' W 124°33'1410.4
2017-Aug-10 05:08N 47°26' W 124°45'0 0.7
2017-Aug-10 04:46N 47°26' W 124°45'2 8.4
2017-Aug-10 04:29N 47°28' W 124°47'4 8.1
2017-Aug-10 04:01N 47°32' W 124°51'4 8.1
2017-Aug-10 03:30N 47°35' W 124°54'4 8.0
2017-Aug-10 03:00N 47°38' W 124°58'4 7.9
2017-Aug-10 02:30N 47°41' W 125°01'4 8.1
2017-Aug-10 02:00N 47°44' W 125°05'5 7.1
2017-Aug-10 01:15N 47°49' W 125°08'2 8.1
2017-Aug-10 01:00N 47°51' W 125°10'4 8.1
2017-Aug-10 00:30N 47°54' W 125°14'4 8.0
2017-Aug-10 00:00N 47°57' W 125°18'4 6.9
2017-Aug-09 23:24N 48°01' W 125°19'2 5.6
2017-Aug-09 23:00N 48°03' W 125°18'4 2.2
2017-Aug-09 21:09N 48°07' W 125°15'0 3.0
2017-Aug-09 21:00N 48°07' W 125°15'2 2.7
2017-Aug-09 20:08N 48°09' W 125°13'6 2.9
2017-Aug-09 18:10N 48°15' W 125°13'1 7.4
2017-Aug-09 17:58N 48°13' W 125°13'5 7.3
2017-Aug-09 17:18N 48°09' W 125°16'5 1.4
2017-Aug-09 13:50N 48°13' W 125°12'1 2.3
2017-Aug-09 13:26N 48°14' W 125°11'1 1.5
2017-Aug-09 12:56N 48°14' W 125°12'4 3.4
2017-Aug-09 11:45N 48°15' W 125°06'0 1.0
2017-Aug-09 11:30N 48°15' W 125°07'1 1.0
2017-Aug-09 10:58N 48°15' W 125°08'1 1.2
2017-Aug-09 10:24N 48°15' W 125°09'2 1.3
2017-Aug-09 08:34N 48°14' W 125°12'0 1.1
2017-Aug-09 08:24N 48°14' W 125°12'2 1.0
2017-Aug-09 06:25N 48°12' W 125°14'6 4.7
2017-Aug-09 05:03N 48°08' W 125°06'0 4.7
2017-Aug-09 05:00N 48°08' W 125°06'3 4.7
2017-Aug-09 04:27N 48°07' W 125°02'0 0.5
2017-Aug-09 03:57N 48°07' W 125°02'1 1.8
2017-Aug-09 03:26N 48°08' W 125°02'2 2.9
2017-Aug-09 02:45N 48°10' W 125°02'1 3.5
2017-Aug-09 02:30N 48°11' W 125°02'1 1.5
2017-Aug-09 02:01N 48°10' W 125°02'2 4.0
2017-Aug-09 01:29N 48°12' W 125°05'3 4.6
2017-Aug-09 00:52N 48°10' W 125°06'3 6.8
2017-Aug-09 00:27N 48°12' W 125°06'4 9.0
2017-Aug-08 23:59N 48°14' W 125°12'28 8.5
2017-Aug-08 20:42N 47°47' W 125°04'2 7.9
2017-Aug-08 20:29N 47°45' W 125°04'5 9.2
2017-Aug-08 19:59N 47°41' W 125°03'4 8.9
2017-Aug-08 19:30N 47°37' W 125°00'4 8.8
2017-Aug-08 19:00N 47°33' W 124°57'4 8.6
2017-Aug-08 18:30N 47°29' W 124°54'5 8.7
2017-Aug-08 17:55N 47°25' W 124°50'4 8.7
2017-Aug-08 17:30N 47°22' W 124°48'0 0.2
2017-Aug-08 17:00N 47°22' W 124°47'5 8.1
2017-Aug-08 16:25N 47°17' W 124°45'3 8.3
2017-Aug-08 16:00N 47°15' W 124°42'4 8.6
2017-Aug-08 15:29N 47°11' W 124°37'11 9.1
2017-Aug-08 14:19N 47°04' W 124°26'3 8.8
2017-Aug-08 14:00N 47°02' W 124°23'4 8.9
2017-Aug-08 13:30N 46°59' W 124°19'4 8.9
2017-Aug-08 13:00N 46°56' W 124°14'510.4
2017-Aug-08 12:30N 46°55' W 124°07'0 0.8
2017-Aug-08 12:00N 46°54' W 124°06'0 0.1
2017-Aug-08 11:30N 46°54' W 124°06'0 0.0
2017-Aug-08 11:00N 46°54' W 124°06'0 0.0
2017-Aug-08 10:30N 46°54' W 124°06'0 0.0
2017-Aug-08 10:00N 46°54' W 124°06'0 0.0
2017-Aug-08 09:30N 46°54' W 124°06'0 0.0
2017-Aug-08 09:00N 46°54' W 124°06'  

Dump ship's entire track history